Accueil
METAR-TAF:

METAR-TAF

Aéroports :

Aéroport international Princess Juliana

Saint-Martin, Antilles néerlandaises

latitude: 18-03N, longitude: 063-07W, altitude: 4 m

Observation

Le bulletin a été fait il y a 13 minutes, à 04:00 UTC
Vent 9 kt de est
Température 27°C
Humidité 74%
Pression 1020 hPa
Visibilité 10 km ou plus
Quelques nuages à une hauteur de 2000 ft

METAR: TNCM 250400Z 09009KT 9999 FEW020 27/22 Q1019 A3011 RMK HZ ALQDS

Heure: 00:13 (04:13 UTC)

Prévision

Le bulletin a été fait il y a 4 heures et 34 minutes, à 23:39 UTC
Prévision valable du 25 à 00 UTC au 25 à 24 UTC
Vent 12 kt de est
Visibilité: 10 km
Nuages épars à une hauteur de 2000 ft

TAF: TNCM 242339Z 2500/2524 09012KT P6SM SCT020

Observations et prévisions météorologiques de plus de 4000 aéroports (messages METAR et TAF).

Les stations disponibles sont représentées par des disques jaunes et rouges sur la carte.

Passer la souris dessus pour voir le nom de la station.

Cliquer dessus pour voir les observations et prévisions météorologiques.

Pour changer de carte: cliquez sur les boutons verts avec une croix noire pour zoomer, sur le bouton vert avec un tiret pour effectuer un zoom arrière, ou sur les flèches vertes pour les cartes adjacentes.


METAR-TAF: